Time;durP1;ratioP1;P1;durP2;ratioP2;P2;SDS_P1;SDS_P2;PMS_P1;PMS_P2;Temp;Humidity;BMP_temperature;BMP_pressure;BME280_temperature;BME280_humidity;BME280_pressure;Samples;Min_cycle;Max_cycle;Signal;HPM_P1;HPM_P2
2024/02/18 00:01:47;;;;;;;21.52;14.15;;;8.80;99.90;;;;;;4994819;28;20204;-89
2024/02/18 00:04:16;;;;;;;19.75;14.23;;;8.80;99.90;;;;;;5051689;28;20221;-89
2024/02/18 00:06:44;;;;;;;20.10;14.25;;;8.80;99.90;;;;;;5052180;28;20268;-90
2024/02/18 00:09:10;;;;;;;18.38;13.95;;;8.70;99.90;;;;;;5054366;28;20206;-89
2024/02/18 00:11:37;;;;;;;22.05;15.40;;;8.70;99.90;;;;;;5050755;28;20214;-89
2024/02/18 00:14:04;;;;;;;20.60;15.13;;;8.50;99.90;;;;;;5051465;28;20643;-90
2024/02/18 00:16:32;;;;;;;21.13;15.60;;;8.40;99.90;;;;;;5050921;28;20278;-89
2024/02/18 00:18:59;;;;;;;21.48;15.65;;;8.30;99.90;;;;;;5048987;28;20584;-91
2024/02/18 00:21:29;;;;;;;20.40;15.32;;;8.30;99.90;;;;;;5051389;28;20208;-89
2024/02/18 00:24:04;;;;;;;20.58;13.98;;;8.30;99.90;;;;;;5052669;28;20304;-90
2024/02/18 00:26:32;;;;;;;21.38;14.63;;;8.40;99.90;;;;;;5047016;28;20201;-90
2024/02/18 00:29:02;;;;;;;20.92;14.75;;;8.40;99.90;;;;;;5048083;28;20203;-90
2024/02/18 00:31:29;;;;;;;21.70;14.95;;;8.40;99.90;;;;;;5055449;28;20194;-90
2024/02/18 00:33:56;;;;;;;25.17;15.32;;;8.40;99.90;;;;;;5053233;28;20731;-89
2024/02/18 00:36:23;;;;;;;20.75;15.00;;;8.30;99.90;;;;;;5059786;28;20202;-89
2024/02/18 00:38:56;;;;;;;21.38;15.18;;;8.20;99.90;;;;;;5050726;28;20201;-90
2024/02/18 00:42:03;;;;;;;22.23;14.82;;;8.20;99.90;;;;;;5052823;28;20213;-89
2024/02/18 00:45:06;;;;;;;20.13;14.32;;;8.40;99.90;;;;;;5048998;28;20252;-90
2024/02/18 00:47:36;;;;;;;18.83;14.07;;;8.60;99.90;;;;;;5051898;28;20272;-89
2024/02/18 00:56:39;;;;;;;20.98;14.52;;;8.50;99.90;;;;;;5032218;28;20221;-89
2024/02/18 01:05:47;;;;;;;19.17;14.00;;;8.60;99.90;;;;;;5044148;28;20263;-90
2024/02/18 01:08:19;;;;;;;19.55;13.38;;;8.70;99.90;;;;;;5027010;28;20190;-90
2024/02/18 01:10:51;;;;;;;18.67;14.27;;;8.80;99.90;;;;;;5041369;28;20214;-89
2024/02/18 01:13:24;;;;;;;22.27;14.07;;;9.00;99.90;;;;;;5046305;28;20208;-90
2024/02/18 01:21:42;;;;;;;19.17;14.45;;;8.90;99.90;;;;;;5053368;28;20229;-90
2024/02/18 01:24:27;;;;;;;23.20;14.82;;;8.80;99.90;;;;;;5052549;28;20305;-89
2024/02/18 01:27:02;;;;;;;19.80;14.48;;;8.80;99.90;;;;;;5052644;28;20214;-89
2024/02/18 01:29:32;;;;;;;21.20;14.90;;;8.80;99.90;;;;;;5050945;28;20209;-90
2024/02/18 01:32:00;;;;;;;19.75;14.70;;;8.80;99.90;;;;;;5051873;28;20296;-90
2024/02/18 01:34:28;;;;;;;22.15;15.30;;;8.90;99.90;;;;;;5051898;28;20198;-89
2024/02/18 01:36:56;;;;;;;20.33;14.88;;;8.90;99.90;;;;;;5045607;28;20264;-89
2024/02/18 01:39:23;;;;;;;20.00;14.35;;;8.90;99.90;;;;;;5048817;28;20597;-90
2024/02/18 01:41:53;;;;;;;19.10;13.73;;;9.10;99.90;;;;;;5043131;28;20217;-89
2024/02/18 01:44:26;;;;;;;18.13;13.60;;;9.20;99.90;;;;;;5050841;28;20263;-89
2024/02/18 01:47:10;;;;;;;21.02;14.75;;;9.20;99.90;;;;;;5049733;28;20206;-90
2024/02/18 01:49:54;;;;;;;19.33;14.40;;;9.10;99.90;;;;;;5051122;28;20197;-89
2024/02/18 01:52:28;;;;;;;20.77;14.80;;;9.00;99.90;;;;;;5055526;28;20229;-89
2024/02/18 01:54:57;;;;;;;19.73;14.30;;;8.90;99.90;;;;;;5052438;28;20209;-89
2024/02/18 01:57:27;;;;;;;20.45;14.25;;;8.90;99.90;;;;;;5050104;28;20254;-90
2024/02/18 01:59:55;;;;;;;18.15;13.57;;;9.00;99.90;;;;;;5048755;28;20630;-90
2024/02/18 02:02:22;;;;;;;20.45;14.25;;;9.00;99.90;;;;;;5036100;28;20213;-90
2024/02/18 02:04:50;;;;;;;19.67;14.02;;;9.00;99.90;;;;;;5050650;28;20283;-90
2024/02/18 02:07:18;;;;;;;20.45;14.30;;;9.00;99.90;;;;;;5049445;28;20697;-89
2024/02/18 02:09:48;;;;;;;17.83;13.57;;;8.90;99.90;;;;;;5049585;28;20244;-89
2024/02/18 02:12:15;;;;;;;19.38;14.27;;;8.90;99.90;;;;;;5044164;28;20205;-90
2024/02/18 02:14:42;;;;;;;18.90;14.07;;;9.00;99.90;;;;;;5017222;28;20198;-89
2024/02/18 02:17:10;;;;;;;18.00;13.68;;;9.10;99.90;;;;;;5030981;28;20203;-89
2024/02/18 02:19:37;;;;;;;18.75;14.00;;;9.20;99.90;;;;;;5053202;28;20204;-89
2024/02/18 02:22:04;;;;;;;18.80;13.82;;;9.20;99.90;;;;;;5045390;28;20204;-89
2024/02/18 02:24:32;;;;;;;18.85;13.27;;;9.20;99.90;;;;;;5048869;28;20743;-90
2024/02/18 02:27:05;;;;;;;18.65;13.82;;;9.20;99.90;;;;;;5049370;28;20202;-89
2024/02/18 02:29:39;;;;;;;17.58;13.32;;;9.20;99.90;;;;;;5051285;28;20296;-90
2024/02/18 02:32:16;;;;;;;17.10;13.02;;;9.20;99.90;;;;;;5051145;28;20221;-90
2024/02/18 02:34:51;;;;;;;18.45;12.75;;;9.20;99.90;;;;;;5054554;28;20279;-90
2024/02/18 02:37:59;;;;;;;18.30;13.25;;;9.20;99.90;;;;;;5052206;28;20225;-90
2024/02/18 02:40:30;;;;;;;17.27;12.50;;;9.10;99.90;;;;;;5046147;28;20239;-89
2024/02/18 02:45:51;;;;;;;20.13;13.32;;;8.60;99.90;;;;;;5050971;28;20225;-90
2024/02/18 02:48:19;;;;;;;21.35;13.40;;;8.50;99.90;;;;;;5039265;28;20206;-89
2024/02/18 02:50:49;;;;;;;19.08;13.05;;;8.50;99.90;;;;;;5047370;28;20233;-89
2024/02/18 02:53:15;;;;;;;21.33;13.98;;;8.40;99.90;;;;;;5049049;28;20229;-89
2024/02/18 02:55:42;;;;;;;17.58;12.52;;;8.40;99.90;;;;;;5053583;28;20206;-89
2024/02/18 02:58:09;;;;;;;20.67;13.55;;;8.30;99.90;;;;;;5047620;28;20213;-89
2024/02/18 03:00:36;;;;;;;20.30;13.65;;;8.30;99.90;;;;;;5058258;28;20204;-90
2024/02/18 03:03:05;;;;;;;21.50;13.70;;;8.10;99.90;;;;;;5048495;28;20221;-89
2024/02/18 03:05:32;;;;;;;19.75;14.00;;;7.90;99.90;;;;;;5047498;28;20233;-90
2024/02/18 03:07:58;;;;;;;21.40;13.93;;;7.80;99.90;;;;;;5044525;28;20206;-89
2024/02/18 03:10:25;;;;;;;20.30;13.25;;;7.70;99.90;;;;;;5047956;28;20204;-89
2024/02/18 03:12:52;;;;;;;20.73;14.20;;;7.70;99.90;;;;;;5045258;28;20199;-89
2024/02/18 03:15:19;;;;;;;20.13;13.98;;;7.70;99.90;;;;;;5052518;28;20723;-89
2024/02/18 03:17:47;;;;;;;20.42;14.27;;;7.60;99.90;;;;;;5042229;28;20242;-90
2024/02/18 03:20:16;;;;;;;20.20;13.27;;;7.60;99.90;;;;;;5045719;28;20206;-90
2024/02/18 03:22:43;;;;;;;20.63;13.77;;;7.40;99.90;;;;;;5048193;28;20214;-90
2024/02/18 03:25:10;;;;;;;19.70;13.57;;;7.40;99.90;;;;;;5048066;28;20225;-90
2024/02/18 03:27:37;;;;;;;20.95;13.57;;;7.40;99.90;;;;;;5049366;28;20237;-89
2024/02/18 03:30:04;;;;;;;19.63;13.85;;;7.30;99.90;;;;;;5032994;28;20603;-89
2024/02/18 03:32:35;;;;;;;22.05;13.88;;;7.10;99.90;;;;;;5046602;28;20248;-89
2024/02/18 03:35:03;;;;;;;23.08;14.35;;;7.10;99.90;;;;;;5050996;28;20256;-90
2024/02/18 03:37:31;;;;;;;18.02;12.55;;;7.10;99.90;;;;;;5053604;28;20197;-90
2024/02/18 03:39:58;;;;;;;20.38;13.68;;;7.10;99.90;;;;;;5052909;28;20202;-89
2024/02/18 03:42:25;;;;;;;18.52;12.57;;;7.10;99.90;;;;;;5053246;28;20265;-90
2024/02/18 03:44:52;;;;;;;18.15;12.35;;;7.20;99.90;;;;;;5051048;28;20232;-89
2024/02/18 03:47:23;;;;;;;18.13;12.80;;;7.20;99.90;;;;;;5051821;28;20197;-89
2024/02/18 03:49:50;;;;;;;19.05;12.95;;;7.10;99.90;;;;;;5051809;28;20566;-89
2024/02/18 03:52:17;;;;;;;21.85;13.55;;;7.00;99.90;;;;;;5031348;28;20194;-89
2024/02/18 03:54:45;;;;;;;21.60;13.75;;;6.90;99.90;;;;;;5049589;28;20208;-90
2024/02/18 03:57:12;;;;;;;20.00;13.70;;;6.90;99.90;;;;;;5048644;28;20725;-89
2024/02/18 03:59:39;;;;;;;19.48;13.23;;;7.00;99.90;;;;;;5053259;28;20569;-90
2024/02/18 04:02:06;;;;;;;17.80;12.65;;;7.10;99.90;;;;;;5054988;28;20205;-89
2024/02/18 04:04:33;;;;;;;17.85;12.40;;;7.10;99.90;;;;;;5055039;28;20232;-90
2024/02/18 04:07:00;;;;;;;22.48;13.48;;;7.10;99.90;;;;;;5031770;28;20205;-90
2024/02/18 04:09:27;;;;;;;17.17;12.25;;;7.10;99.90;;;;;;5052081;28;20197;-90
2024/02/18 04:11:55;;;;;;;18.42;12.88;;;7.00;99.90;;;;;;5050216;28;20567;-89
2024/02/18 04:14:22;;;;;;;21.00;13.75;;;7.00;99.90;;;;;;5046511;28;20284;-90
2024/02/18 04:16:49;;;;;;;18.33;12.38;;;7.00;99.90;;;;;;5049614;28;20264;-89
2024/02/18 04:19:16;;;;;;;19.30;12.43;;;7.00;99.90;;;;;;5042205;28;20201;-89
2024/02/18 04:21:43;;;;;;;17.58;12.40;;;7.00;99.90;;;;;;5046306;28;20611;-89
2024/02/18 04:24:10;;;;;;;19.23;12.95;;;7.10;99.90;;;;;;5051299;28;20209;-89
2024/02/18 04:26:37;;;;;;;20.42;13.25;;;7.20;99.90;;;;;;5052428;28;20190;-89
2024/02/18 04:29:05;;;;;;;19.08;13.00;;;7.20;99.90;;;;;;5053210;28;20214;-89
2024/02/18 04:31:32;;;;;;;20.73;13.30;;;7.20;99.90;;;;;;5050920;28;20198;-89
2024/02/18 04:33:59;;;;;;;19.80;13.00;;;7.30;99.90;;;;;;5051914;28;20215;-89
2024/02/18 04:36:26;;;;;;;21.30;13.60;;;7.40;99.90;;;;;;5053369;28;20577;-90
2024/02/18 04:38:53;;;;;;;16.38;12.55;;;7.50;99.90;;;;;;5058217;28;20248;-90
2024/02/18 04:41:21;;;;;;;17.70;12.38;;;7.60;99.90;;;;;;5053034;28;20214;-89
2024/02/18 04:43:48;;;;;;;18.38;12.82;;;7.70;99.90;;;;;;5047473;28;20210;-90
2024/02/18 04:46:15;;;;;;;18.02;11.90;;;7.70;99.90;;;;;;5043050;28;20718;-89
2024/02/18 04:48:42;;;;;;;17.83;12.52;;;7.70;99.90;;;;;;5049667;28;21517;-90
2024/02/18 04:51:09;;;;;;;20.20;13.52;;;7.70;99.90;;;;;;5051745;28;20197;-89
2024/02/18 04:53:36;;;;;;;18.60;12.85;;;7.70;99.90;;;;;;5029579;28;20194;-89
2024/02/18 04:56:03;;;;;;;19.20;13.05;;;7.60;99.90;;;;;;5052741;28;20198;-89
2024/02/18 04:58:30;;;;;;;18.75;12.85;;;7.60;99.90;;;;;;5045694;28;20210;-89
2024/02/18 05:01:04;;;;;;;18.58;12.40;;;7.70;99.90;;;;;;5053255;28;20260;-90
2024/02/18 05:03:33;;;;;;;18.52;11.95;;;7.90;99.90;;;;;;5050596;28;20217;-89
2024/02/18 05:05:59;;;;;;;16.67;12.10;;;8.00;99.90;;;;;;5053126;28;20276;-89
2024/02/18 05:08:26;;;;;;;21.90;12.05;;;8.10;99.90;;;;;;5031676;28;20205;-89
2024/02/18 05:10:54;;;;;;;17.45;12.02;;;8.00;99.90;;;;;;5051821;28;20197;-88
2024/02/18 05:13:22;;;;;;;15.90;11.98;;;7.80;99.90;;;;;;5053167;28;20244;-89
2024/02/18 05:15:51;;;;;;;17.40;11.95;;;7.90;99.90;;;;;;5044095;28;20681;-90
2024/02/18 05:18:18;;;;;;;16.45;11.77;;;7.90;99.90;;;;;;5049091;28;20279;-90
2024/02/18 05:20:46;;;;;;;18.50;12.10;;;8.00;99.90;;;;;;5050063;28;20212;-90
2024/02/18 05:23:13;;;;;;;17.95;12.77;;;8.00;99.90;;;;;;5051501;28;20573;-90
2024/02/18 05:25:40;;;;;;;15.85;11.25;;;7.90;99.90;;;;;;5049773;28;20222;-89
2024/02/18 05:28:07;;;;;;;18.10;11.45;;;7.90;99.90;;;;;;5050049;28;20575;-90
2024/02/18 05:30:35;;;;;;;17.58;12.23;;;7.90;99.90;;;;;;5047470;28;20202;-90
2024/02/18 05:33:03;;;;;;;17.77;11.65;;;7.70;99.90;;;;;;5050404;28;20202;-90
2024/02/18 05:35:29;;;;;;;18.77;12.50;;;7.40;99.90;;;;;;5052424;28;20213;-90
2024/02/18 05:37:58;;;;;;;18.15;12.98;;;7.30;99.90;;;;;;5049749;28;20206;-90
2024/02/18 05:40:25;;;;;;;18.90;12.93;;;7.10;99.90;;;;;;5046737;28;20205;-90
2024/02/18 05:42:52;;;;;;;16.40;12.25;;;7.10;99.90;;;;;;5063764;28;20208;-90
2024/02/18 05:45:21;;;;;;;19.17;12.60;;;7.20;99.90;;;;;;5049162;28;20234;-90
2024/02/18 05:47:48;;;;;;;17.30;11.88;;;7.40;99.90;;;;;;5055662;28;20284;-90
2024/02/18 05:50:14;;;;;;;17.50;12.00;;;7.40;99.90;;;;;;5051167;28;20199;-90
2024/02/18 05:52:42;;;;;;;15.65;11.38;;;7.20;99.90;;;;;;5046766;28;20639;-90
2024/02/18 05:55:11;;;;;;;16.52;12.13;;;7.10;99.90;;;;;;5047610;28;20557;-90
2024/02/18 05:57:38;;;;;;;18.90;12.30;;;6.90;99.90;;;;;;5050882;28;20300;-90
2024/02/18 06:00:07;;;;;;;16.02;11.27;;;6.70;99.90;;;;;;5052183;28;20215;-90
2024/02/18 06:02:33;;;;;;;18.67;12.07;;;6.60;99.90;;;;;;5048649;28;20204;-90
2024/02/18 06:05:00;;;;;;;16.70;11.90;;;6.50;99.90;;;;;;5054772;28;20221;-90
2024/02/18 06:07:27;;;;;;;17.58;11.40;;;6.40;99.90;;;;;;5051837;28;20681;-90
2024/02/18 06:09:55;;;;;;;16.60;12.30;;;6.30;99.90;;;;;;5049795;28;20654;-89
2024/02/18 06:12:23;;;;;;;17.63;12.15;;;6.20;99.90;;;;;;5043985;28;20275;-90
2024/02/18 06:14:50;;;;;;;17.02;11.45;;;6.20;99.90;;;;;;5044805;28;20666;-90
2024/02/18 06:17:18;;;;;;;14.70;10.93;;;6.30;99.90;;;;;;5051358;28;20205;-89
2024/02/18 06:19:45;;;;;;;16.50;12.10;;;6.40;99.90;;;;;;5049190;28;20625;-89
2024/02/18 06:22:15;;;;;;;21.02;11.40;;;6.40;99.90;;;;;;5048919;28;20206;-90
2024/02/18 06:24:42;;;;;;;16.40;10.90;;;6.30;99.90;;;;;;5028903;28;20210;-90
2024/02/18 06:27:09;;;;;;;16.20;11.05;;;6.20;99.90;;;;;;5050127;28;20212;-90
2024/02/18 06:29:38;;;;;;;18.52;11.98;;;6.20;99.90;;;;;;5030108;28;20202;-89
2024/02/18 06:32:05;;;;;;;17.50;11.27;;;6.10;99.90;;;;;;5051052;28;20276;-90
2024/02/18 06:34:32;;;;;;;15.02;10.23;;;6.10;99.90;;;;;;5051326;28;20202;-90
2024/02/18 06:36:58;;;;;;;16.15;10.90;;;6.10;99.90;;;;;;5052564;28;20208;-90
2024/02/18 06:39:27;;;;;;;15.80;11.07;;;6.20;99.90;;;;;;5049521;28;20217;-90
2024/02/18 06:41:54;;;;;;;15.02;10.88;;;6.20;99.90;;;;;;5049910;28;20673;-90
2024/02/18 06:44:22;;;;;;;15.18;10.75;;;6.30;99.90;;;;;;5046300;28;20205;-90
2024/02/18 06:46:51;;;;;;;16.92;10.93;;;6.30;99.90;;;;;;5053438;28;20221;-89
2024/02/18 06:49:21;;;;;;;14.95;10.40;;;6.30;99.90;;;;;;5051072;28;20194;-89
2024/02/18 06:51:48;;;;;;;15.48;10.68;;;6.40;99.90;;;;;;5023327;28;20605;-90
2024/02/18 06:54:15;;;;;;;13.43;10.25;;;6.70;99.90;;;;;;5050627;28;20228;-90
2024/02/18 06:56:45;;;;;;;14.80;10.25;;;6.80;99.90;;;;;;5051200;28;20221;-90
2024/02/18 06:59:13;;;;;;;13.57;10.18;;;6.90;99.90;;;;;;5046862;28;20245;-89
2024/02/18 07:01:40;;;;;;;16.90;10.55;;;7.00;99.90;;;;;;5049123;28;20225;-90
2024/02/18 07:04:08;;;;;;;14.77;10.30;;;7.10;99.90;;;;;;5055282;28;20206;-90
2024/02/18 07:06:37;;;;;;;15.75;11.10;;;7.20;99.90;;;;;;5059656;28;20226;-89
2024/02/18 07:09:04;;;;;;;16.70;11.50;;;7.30;99.90;;;;;;5049686;28;20205;-89
2024/02/18 07:11:32;;;;;;;12.82;9.73;;;7.40;99.90;;;;;;5055932;28;20198;-90
2024/02/18 07:14:00;;;;;;;10.93;8.75;;;7.60;99.90;;;;;;5038192;28;20206;-89
2024/02/18 07:16:27;;;;;;;10.70;8.40;;;7.70;99.90;;;;;;5039132;28;20201;-90
2024/02/18 07:18:54;;;;;;;12.10;7.43;;;7.70;99.90;;;;;;5051261;28;20655;-90
2024/02/18 07:21:22;;;;;;;10.07;7.38;;;7.70;99.90;;;;;;5044745;28;20227;-90
2024/02/18 07:23:50;;;;;;;10.93;8.23;;;7.70;99.90;;;;;;5052883;28;20282;-89
2024/02/18 07:26:17;;;;;;;9.73;7.85;;;7.90;99.90;;;;;;5050329;28;20304;-89
2024/02/18 07:28:44;;;;;;;9.05;7.63;;;7.80;99.90;;;;;;5056796;28;20204;-90
2024/02/18 07:31:11;;;;;;;8.68;7.28;;;7.90;99.90;;;;;;5055364;28;20198;-90
2024/02/18 07:33:38;;;;;;;9.07;7.43;;;8.10;99.90;;;;;;5047110;28;20623;-89
2024/02/18 07:36:06;;;;;;;8.90;7.40;;;8.00;99.90;;;;;;5052424;28;20214;-89
2024/02/18 07:38:35;;;;;;;8.73;7.07;;;8.30;99.90;;;;;;5033631;28;20284;-90
2024/02/18 07:41:02;;;;;;;7.72;6.68;;;8.50;99.90;;;;;;5051520;28;20206;-90
2024/02/18 07:43:31;;;;;;;8.63;6.68;;;8.80;99.90;;;;;;5036831;28;20229;-90
2024/02/18 07:46:11;;;;;;;8.23;7.00;;;9.20;99.90;;;;;;5045549;28;20596;-90
2024/02/18 07:49:07;;;;;;;8.95;7.28;;;9.20;99.10;;;;;;5055125;28;20210;-90
2024/02/18 07:55:37;;;;;;;9.88;8.07;;;9.40;99.80;;;;;;5029551;28;20239;-89
2024/02/18 07:58:25;;;;;;;11.32;7.35;;;9.50;98.60;;;;;;5059145;28;20228;-89
2024/02/18 08:01:00;;;;;;;10.07;8.50;;;9.30;98.80;;;;;;5052213;28;20213;-89
2024/02/18 08:03:33;;;;;;;8.88;7.40;;;9.10;99.00;;;;;;5047169;28;20213;-89
2024/02/18 08:05:59;;;;;;;13.73;8.73;;;9.00;99.80;;;;;;5045884;28;20222;-88
2024/02/18 08:08:26;;;;;;;10.30;8.30;;;9.00;99.90;;;;;;5055239;28;20228;-89
2024/02/18 08:10:53;;;;;;;10.60;8.70;;;8.90;99.90;;;;;;5051140;28;20209;-88
2024/02/18 08:13:21;;;;;;;13.23;8.98;;;8.80;99.90;;;;;;5051204;28;20198;-88
2024/02/18 08:15:48;;;;;;;11.45;9.15;;;8.80;99.90;;;;;;5051821;28;20569;-89
2024/02/18 08:18:15;;;;;;;13.15;9.73;;;9.10;99.90;;;;;;5051125;28;20202;-88
2024/02/18 08:20:43;;;;;;;14.90;10.90;;;9.50;99.90;;;;;;5048854;28;20562;-88
2024/02/18 08:23:12;;;;;;;15.15;10.77;;;9.90;99.30;;;;;;5049520;28;20202;-88
2024/02/18 08:25:39;;;;;;;16.27;12.10;;;9.80;99.40;;;;;;5049992;28;20225;-88
2024/02/18 08:28:06;;;;;;;14.55;11.18;;;10.20;98.80;;;;;;5049768;28;20286;-89
2024/02/18 08:30:35;;;;;;;15.60;11.18;;;10.70;98.00;;;;;;5032590;28;20198;-88
2024/02/18 08:33:02;;;;;;;17.02;11.88;;;11.10;96.60;;;;;;5051707;28;20569;-88
2024/02/18 08:35:28;;;;;;;18.52;12.68;;;11.30;95.60;;;;;;5049746;28;20744;-89
2024/02/18 08:37:55;;;;;;;14.85;11.73;;;11.40;95.30;;;;;;5050789;28;20574;-88
2024/02/18 08:40:22;;;;;;;19.90;13.43;;;11.10;95.20;;;;;;5047562;28;20285;-88
2024/02/18 08:42:49;;;;;;;16.35;12.35;;;11.10;96.00;;;;;;5037114;28;20271;-88
2024/02/18 08:45:16;;;;;;;15.00;12.27;;;11.30;95.00;;;;;;5050995;28;20196;-88
2024/02/18 08:47:45;;;;;;;15.10;11.45;;;11.60;94.00;;;;;;5048206;28;20226;-88
2024/02/18 08:50:13;;;;;;;18.15;11.75;;;11.50;94.10;;;;;;5052464;28;20197;-87
2024/02/18 08:52:40;;;;;;;13.98;10.68;;;11.30;94.10;;;;;;5050274;28;20207;-88
2024/02/18 08:55:09;;;;;;;15.98;12.30;;;11.50;94.70;;;;;;5051884;28;20293;-88
2024/02/18 08:57:35;;;;;;;17.17;11.88;;;11.60;93.50;;;;;;5050515;28;20221;-88
2024/02/18 09:00:02;;;;;;;16.13;12.68;;;11.80;92.30;;;;;;5049086;28;20194;-88
2024/02/18 09:02:30;;;;;;;16.77;12.40;;;11.70;92.80;;;;;;5048234;28;20199;-89
2024/02/18 09:08:25;;;;;;;14.13;10.30;;;12.30;91.40;;;;;;5130703;22;1919246;-94
2024/02/18 09:11:07;;;;;;;13.60;10.55;;;12.40;90.80;;;;;;5087998;28;20185;-96
2024/02/18 09:13:34;;;;;;;10.70;9.40;;;12.80;90.10;;;;;;5151854;22;20233;-91
2024/02/18 09:16:01;;;;;;;11.70;10.07;;;13.80;83.70;;;;;;5050803;28;20767;-92
2024/02/18 09:18:28;;;;;;;10.98;9.32;;;15.60;55.60;;;;;;5051660;28;20206;-91
2024/02/18 09:20:55;;;;;;;11.45;10.02;;;16.30;44.40;;;;;;5050413;28;20213;-92
2024/02/18 09:23:35;;;;;;;11.25;9.50;;;16.80;38.30;;;;;;5053080;28;20260;-91
2024/02/18 09:26:03;;;;;;;10.90;9.27;;;17.10;36.70;;;;;;5047335;28;20266;-88
2024/02/18 09:28:29;;;;;;;12.20;10.10;;;17.90;32.40;;;;;;5042781;28;20751;-88
2024/02/18 09:30:58;;;;;;;12.82;10.50;;;18.80;25.80;;;;;;5056522;28;20206;-88
2024/02/18 09:33:25;;;;;;;10.68;9.32;;;19.70;21.00;;;;;;5061558;28;20215;-87
2024/02/18 09:35:52;;;;;;;11.57;9.60;;;18.60;23.40;;;;;;5050895;28;20202;-89
2024/02/18 09:38:18;;;;;;;10.40;9.30;;;18.90;22.20;;;;;;5053003;28;20201;-90
2024/02/18 09:40:48;;;;;;;11.10;10.00;;;19.40;20.90;;;;;;5052577;28;20202;-90
2024/02/18 09:43:19;;;;;;;10.50;9.40;;;17.90;22.30;;;;;;5051165;28;20221;-90
2024/02/18 09:45:47;;;;;;;11.57;9.20;;;18.60;23.00;;;;;;5047942;28;20206;-91
2024/02/18 09:48:17;;;;;;;10.75;9.63;;;19.10;22.30;;;;;;5047619;28;20303;-87
2024/02/18 09:50:44;;;;;;;10.85;9.27;;;19.20;20.10;;;;;;5052905;28;20198;-91
2024/02/18 09:53:13;;;;;;;10.13;9.13;;;20.10;19.60;;;;;;5050213;28;20209;-91
2024/02/18 09:55:43;;;;;;;10.43;9.32;;;20.60;17.60;;;;;;5046471;28;20210;-91
2024/02/18 09:58:14;;;;;;;10.70;9.48;;;21.30;15.30;;;;;;5048073;28;20209;-91
2024/02/18 10:00:41;;;;;;;10.57;9.48;;;21.70;14.30;;;;;;5064072;28;20571;-91
2024/02/18 10:03:09;;;;;;;11.25;10.05;;;21.60;14.20;;;;;;5051055;28;20297;-92
2024/02/18 10:05:36;;;;;;;12.73;9.02;;;20.80;15.40;;;;;;5053642;28;20239;-92
2024/02/18 10:08:12;;;;;;;10.35;8.85;;;20.80;16.10;;;;;;5058340;28;20226;-93
2024/02/18 10:10:39;;;;;;;10.75;9.10;;;20.40;15.40;;;;;;5053694;28;20206;-92
2024/02/18 10:13:10;;;;;;;8.18;7.40;;;20.40;14.50;;;;;;5051815;28;20201;-92
2024/02/18 10:15:38;;;;;;;8.38;7.57;;;20.70;13.90;;;;;;5066208;28;20208;-92
2024/02/18 10:18:07;;;;;;;8.70;7.80;;;21.10;13.30;;;;;;5047224;28;20198;-91
2024/02/18 10:20:36;;;;;;;7.93;6.95;;;21.30;12.40;;;;;;5040988;28;20198;-91
2024/02/18 10:23:04;;;;;;;8.77;7.97;;;20.80;13.30;;;;;;5039487;28;20202;-93
2024/02/18 10:25:32;;;;;;;9.00;7.43;;;20.40;14.20;;;;;;5040800;28;20297;-88
2024/02/18 10:27:59;;;;;;;8.32;7.53;;;20.00;14.80;;;;;;5036059;28;20225;-89
2024/02/18 10:30:26;;;;;;;10.43;8.18;;;19.40;16.30;;;;;;5033897;28;20211;-92
2024/02/18 10:32:55;;;;;;;9.48;7.30;;;18.10;18.20;;;;;;5035046;28;20202;-92
2024/02/18 10:35:22;;;;;;;7.85;7.03;;;16.90;21.30;;;;;;5040935;28;20202;-92
2024/02/18 10:38:07;;;;;;;6.70;6.10;;;16.10;21.90;;;;;;5036175;28;20209;-91
2024/02/18 10:41:11;;;;;;;7.35;6.63;;;15.60;24.90;;;;;;5037544;28;20254;-93
2024/02/18 10:43:51;;;;;;;9.23;7.20;;;16.10;23.70;;;;;;5033373;28;20214;-93
2024/02/18 10:46:21;;;;;;;7.95;7.15;;;16.60;22.20;;;;;;5028232;28;20586;-91
2024/02/18 10:48:53;;;;;;;8.45;7.65;;;16.80;22.10;;;;;;5029548;28;20202;-91
2024/02/18 10:51:26;;;;;;;7.40;6.70;;;17.60;20.50;;;;;;5031306;28;20198;-91
2024/02/18 10:54:10;;;;;;;7.32;6.43;;;17.90;18.90;;;;;;5027710;28;20218;-91
2024/02/18 10:56:40;;;;;;;7.28;6.47;;;17.20;21.50;;;;;;5028423;28;20214;-90
2024/02/18 11:34:00;;;;;;;9.45;7.50;;;15.40;25.60;;;;;;5742227;23;20204;31
2024/02/18 11:36:29;;;;;;;7.55;5.88;;;14.80;27.70;;;;;;4953736;28;20277;-93
2024/02/18 11:39:15;;;;;;;7.18;6.20;;;14.60;27.50;;;;;;4935852;28;20202;-95
2024/02/18 11:41:43;;;;;;;7.05;5.85;;;14.50;27.40;;;;;;4936859;29;20205;-92
2024/02/18 11:44:12;;;;;;;6.13;5.05;;;14.70;29.30;;;;;;4932305;29;20236;-92
2024/02/18 11:46:41;;;;;;;6.85;4.80;;;14.60;27.50;;;;;;4935546;29;20221;-91
2024/02/18 11:49:08;;;;;;;5.40;4.65;;;14.70;26.50;;;;;;4933500;29;20290;-91
2024/02/18 11:51:37;;;;;;;5.03;4.53;;;14.70;27.60;;;;;;4935991;29;20202;-90
2024/02/18 11:54:06;;;;;;;4.57;3.97;;;14.50;27.40;;;;;;4933899;28;20346;-90
2024/02/18 11:56:33;;;;;;;5.70;4.57;;;14.60;27.50;;;;;;4931803;29;20221;-91
2024/02/18 11:59:01;;;;;;;4.88;4.22;;;14.60;27.50;;;;;;4930280;29;20205;-92
2024/02/18 12:01:30;;;;;;;4.63;4.10;;;14.40;27.40;;;;;;4929858;29;20293;-91
2024/02/18 12:04:00;;;;;;;6.05;4.47;;;14.50;28.50;;;;;;4931558;29;20265;-92
2024/02/18 12:06:27;;;;;;;5.50;4.70;;;14.60;27.50;;;;;;4934144;29;20205;-91
2024/02/18 12:08:55;;;;;;;5.63;5.03;;;14.50;28.60;;;;;;4933389;29;20206;-91
2024/02/18 12:11:22;;;;;;;7.57;6.40;;;14.60;29.20;;;;;;4930069;29;20250;-90
2024/02/18 12:13:49;;;;;;;5.78;5.18;;;14.40;29.20;;;;;;4929140;29;20205;-91
2024/02/18 12:16:17;;;;;;;5.28;4.57;;;14.30;32.20;;;;;;4939834;29;20729;-90
2024/02/18 12:18:44;;;;;;;20.92;15.48;;;14.10;30.00;;;;;;4928738;29;20266;-91
2024/02/18 12:21:15;;;;;;;5.63;4.82;;;14.20;31.60;;;;;;4935215;28;20224;-91
2024/02/18 12:23:44;;;;;;;5.30;4.75;;;14.30;32.50;;;;;;4936701;29;20573;-91
2024/02/18 12:28:58;;;;;;;5.30;4.70;;;14.30;30.00;;;;;;4935045;29;20214;-90
2024/02/18 12:31:25;;;;;;;8.00;6.68;;;14.20;29.50;;;;;;4929958;29;20199;-90
2024/02/18 12:33:52;;;;;;;7.75;5.97;;;14.20;28.90;;;;;;4921195;29;20225;-90
2024/02/18 12:36:19;;;;;;;5.20;4.40;;;14.20;32.70;;;;;;4919180;29;20220;-90
2024/02/18 12:38:48;;;;;;;5.15;4.63;;;14.30;30.60;;;;;;4939546;29;20201;-92
2024/02/18 12:41:19;;;;;;;5.75;5.10;;;14.30;30.60;;;;;;4951140;29;20201;-95
2024/02/18 12:43:48;;;;;;;5.32;4.82;;;14.10;32.00;;;;;;4948535;28;20272;-92
2024/02/18 12:46:15;;;;;;;5.18;4.68;;;14.20;31.70;;;;;;4939164;29;20217;-92
2024/02/18 12:48:42;;;;;;;14.20;8.60;;;13.70;32.70;;;;;;4940498;29;20252;-93
2024/02/18 12:51:13;;;;;;;5.80;4.75;;;13.80;36.70;;;;;;4941561;29;20208;-93
2024/02/18 12:53:41;;;;;;;5.57;5.07;;;13.70;35.40;;;;;;4937739;28;20213;-94
2024/02/18 13:03:17;;;;;;;5.20;4.50;;;13.70;35.20;;;;;;4932260;29;20209;-92
2024/02/18 13:05:51;;;;;;;4.95;4.40;;;13.90;35.50;;;;;;4932196;29;20202;-92
2024/02/18 13:12:15;;;;;;;5.80;4.53;;;14.40;31.60;;;;;;4938494;29;20210;-93
2024/02/18 13:14:43;;;;;;;4.53;3.97;;;14.40;31.30;;;;;;4936610;29;20210;-92
2024/02/18 13:17:20;;;;;;;4.32;3.92;;;14.40;30.60;;;;;;4935749;29;20209;-91
2024/02/18 13:33:44;;;;;;;2.25;2.05;;;14.70;29.90;;;;;;4861759;29;20308;-92
2024/02/18 13:36:15;;;;;;;2.42;1.88;;;14.70;27.60;;;;;;4922450;29;20206;-92
2024/02/18 13:43:09;;;;;;;3.83;2.20;;;14.30;27.30;;;;;;4932954;29;20574;-93
2024/02/18 13:48:50;;;;;;;2.38;2.17;;;14.20;27.20;;;;;;4947787;29;20252;-92
2024/02/18 13:52:26;;;;;;;3.15;1.80;;;14.20;27.20;;;;;;4937617;29;20206;-92
2024/02/18 13:55:05;;;;;;;3.80;1.95;;;14.30;27.30;;;;;;4897659;29;20217;-91
2024/02/18 14:03:23;;;;;;;2.00;1.88;;;14.50;27.40;;;;;;5001619;28;20610;-90
2024/02/18 14:05:49;;;;;;;2.30;2.10;;;14.50;27.40;;;;;;4995475;28;20214;-92
2024/02/18 14:08:24;;;;;;;2.20;1.90;;;14.30;27.20;;;;;;4993580;28;20228;-91
2024/02/18 14:10:54;;;;;;;2.15;1.95;;;14.20;27.20;;;;;;4993034;28;20205;-91
2024/02/18 14:16:25;;;;;;;3.38;1.90;;;14.30;27.30;;;;;;4994471;28;20565;-91
2024/02/18 14:21:54;;;;;;;2.10;1.90;;;14.50;27.40;;;;;;4994743;28;20200;-91
2024/02/18 14:24:48;;;;;;;1.98;1.88;;;14.50;27.50;;;;;;4992047;28;20259;-91
2024/02/18 14:27:27;;;;;;;3.97;1.80;;;14.50;27.50;;;;;;4995177;28;20208;-92
2024/02/18 14:30:05;;;;;;;2.20;2.00;;;14.50;27.40;;;;;;4989757;28;20200;-91
2024/02/18 14:32:38;;;;;;;2.80;2.20;;;14.60;27.60;;;;;;4995484;28;20207;-91
2024/02/18 14:35:06;;;;;;;2.58;1.90;;;14.40;27.40;;;;;;4996078;28;20208;-91
2024/02/18 14:37:48;;;;;;;4.18;1.92;;;14.20;27.20;;;;;;4997885;28;20577;-91
2024/02/18 14:43:00;;;;;;;1.95;1.83;;;14.10;27.20;;;;;;4997396;28;20212;-91
2024/02/18 14:45:32;;;;;;;2.17;1.98;;;14.00;27.00;;;;;;4994217;28;20233;-91
2024/02/18 14:47:59;;;;;;;2.03;1.80;;;13.90;27.00;;;;;;4995105;28;21756;-91